createdAt,value
2022-12-11T00:01:00.069Z,-3.65
2022-12-11T00:03:27.988Z,-3.50
2022-12-11T00:05:55.475Z,-3.35
2022-12-11T00:08:22.908Z,-3.27
2022-12-11T00:10:50.624Z,-3.41
2022-12-11T00:13:17.924Z,-3.45
2022-12-11T00:15:45.360Z,-3.42
2022-12-11T00:18:14.331Z,-3.80
2022-12-11T00:20:42.235Z,-3.75
2022-12-11T00:23:09.446Z,-3.69
2022-12-11T00:25:44.562Z,-3.78
2022-12-11T00:28:21.548Z,-3.76
2022-12-11T00:30:48.854Z,-3.79
2022-12-11T00:33:16.734Z,-3.80
2022-12-11T00:35:47.667Z,-3.74
2022-12-11T00:38:20.746Z,-3.71
2022-12-11T00:40:49.663Z,-3.72
2022-12-11T00:43:17.093Z,-3.56
2022-12-11T00:45:46.688Z,-3.52
2022-12-11T00:48:14.172Z,-3.49
2022-12-11T00:50:42.731Z,-3.48
2022-12-11T00:53:10.174Z,-3.38
2022-12-11T00:55:39.833Z,-3.39
2022-12-11T00:58:08.075Z,-3.22
2022-12-11T01:00:35.943Z,-3.11
2022-12-11T01:03:03.927Z,-3.24
2022-12-11T01:05:31.784Z,-3.22
2022-12-11T01:07:59.838Z,-3.10
2022-12-11T01:10:27.587Z,-3.34
2022-12-11T01:13:04.317Z,-3.31
2022-12-11T01:15:41.952Z,-3.41
2022-12-11T01:18:15.108Z,-3.31
2022-12-11T01:20:44.060Z,-3.32
2022-12-11T01:23:14.270Z,-3.42
2022-12-11T01:25:42.805Z,-3.21
2022-12-11T01:28:11.199Z,-3.24
2022-12-11T01:30:38.592Z,-3.19
2022-12-11T01:33:05.995Z,-3.25
2022-12-11T01:35:33.504Z,-3.23
2022-12-11T01:38:01.122Z,-3.27
2022-12-11T01:40:28.352Z,-3.26
2022-12-11T01:42:56.474Z,-3.25
2022-12-11T01:45:27.274Z,-3.35
2022-12-11T01:48:00.860Z,-3.29
2022-12-11T01:50:29.975Z,-3.32
2022-12-11T01:52:58.033Z,-3.28
2022-12-11T01:55:25.393Z,-3.32
2022-12-11T01:57:53.219Z,-3.36
2022-12-11T02:00:21.676Z,-3.36
2022-12-11T02:02:49.396Z,-3.41
2022-12-11T02:05:17.131Z,-3.44
2022-12-11T02:07:49.687Z,-3.39
2022-12-11T02:10:17.640Z,-3.51
2022-12-11T02:13:02.886Z,-3.38
2022-12-11T02:15:50.095Z,-3.38
2022-12-11T02:18:43.403Z,-3.36
2022-12-11T02:21:25.093Z,-3.39
2022-12-11T02:24:11.371Z,-3.49
2022-12-11T02:26:55.777Z,-3.50
2022-12-11T02:29:46.723Z,-3.49
2022-12-11T02:32:34.456Z,-3.58
2022-12-11T02:35:21.581Z,-3.57
2022-12-11T02:37:54.108Z,-3.65
2022-12-11T02:40:28.531Z,-3.65
2022-12-11T02:42:58.325Z,-3.67
2022-12-11T02:45:27.906Z,-3.68
2022-12-11T02:47:59.235Z,-3.61
2022-12-11T02:50:28.547Z,-3.70
2022-12-11T02:52:57.959Z,-3.64
2022-12-11T02:55:29.076Z,-3.65
2022-12-11T02:58:22.962Z,-3.63
2022-12-11T03:00:51.646Z,-3.52
2022-12-11T03:03:19.110Z,-3.39
2022-12-11T03:05:46.777Z,-3.55
2022-12-11T03:08:17.803Z,-3.47
2022-12-11T03:10:46.407Z,-3.53
2022-12-11T03:13:18.975Z,-3.55
2022-12-11T03:15:55.380Z,-3.70
2022-12-11T03:18:41.687Z,-3.78
2022-12-11T03:21:21.079Z,-3.83
2022-12-11T03:24:03.354Z,-3.87
2022-12-11T03:26:33.244Z,-3.83
2022-12-11T03:29:11.804Z,-3.92
2022-12-11T03:31:47.272Z,-3.95
2022-12-11T03:34:37.560Z,-4.01
2022-12-11T03:37:06.609Z,-4.10
2022-12-11T03:39:38.860Z,-4.08
2022-12-11T03:42:11.143Z,-3.99
2022-12-11T03:44:38.998Z,-3.99
2022-12-11T03:47:09.266Z,-3.99
2022-12-11T03:49:43.915Z,-3.99
2022-12-11T03:52:13.286Z,-4.01
2022-12-11T03:54:44.011Z,-3.95
2022-12-11T03:57:16.697Z,-4.00
2022-12-11T03:59:44.635Z,-4.06
2022-12-11T04:02:12.650Z,-4.06
2022-12-11T04:04:43.579Z,-4.03
2022-12-11T04:07:10.880Z,-4.01
2022-12-11T04:09:38.651Z,-4.07
2022-12-11T04:12:06.322Z,-4.08
2022-12-11T04:14:52.078Z,-4.13
2022-12-11T04:17:39.811Z,-4.21
2022-12-11T04:20:26.429Z,-4.21
2022-12-11T04:23:12.645Z,-4.25
2022-12-11T04:25:40.073Z,-4.26
2022-12-11T04:28:07.353Z,-4.32
2022-12-11T04:30:35.179Z,-4.32
2022-12-11T04:33:02.788Z,-4.36
2022-12-11T04:35:30.322Z,-4.31
2022-12-11T04:37:57.756Z,-4.41
2022-12-11T04:40:25.089Z,-4.37
2022-12-11T04:42:52.574Z,-4.37
2022-12-11T04:45:20.068Z,-4.34
2022-12-11T04:47:47.630Z,-4.37
2022-12-11T04:50:16.611Z,-4.43
2022-12-11T04:52:45.261Z,-4.53
2022-12-11T04:55:13.860Z,-4.46
2022-12-11T04:57:42.049Z,-4.31
2022-12-11T05:00:15.222Z,-4.44
2022-12-11T05:02:43.568Z,-4.51
2022-12-11T05:05:13.409Z,-4.34
2022-12-11T05:07:41.320Z,-4.41
2022-12-11T05:10:09.466Z,-4.40
2022-12-11T05:12:36.974Z,-4.38
2022-12-11T05:15:04.470Z,-4.44
2022-12-11T05:17:31.862Z,-4.43
2022-12-11T05:19:59.150Z,-4.46
2022-12-11T05:22:26.645Z,-4.47
2022-12-11T05:24:54.138Z,-4.54
2022-12-11T05:27:21.405Z,-4.51
2022-12-11T05:29:48.824Z,-4.51
2022-12-11T05:32:16.788Z,-4.54
2022-12-11T05:34:44.308Z,-4.50
2022-12-11T05:37:11.769Z,-4.50
2022-12-11T05:39:39.746Z,-4.52
2022-12-11T05:42:07.010Z,-4.46
2022-12-11T05:44:34.217Z,-4.38
2022-12-11T05:47:02.041Z,-4.40
2022-12-11T05:49:31.116Z,-4.40
2022-12-11T05:51:58.693Z,-4.42
2022-12-11T05:54:25.967Z,-4.44
2022-12-11T05:56:53.482Z,-4.48
2022-12-11T05:59:20.833Z,-4.49
2022-12-11T06:01:48.769Z,-4.42
2022-12-11T06:04:16.460Z,-4.38
2022-12-11T06:06:46.721Z,-4.43
2022-12-11T06:09:21.467Z,-4.35
2022-12-11T06:11:50.100Z,-4.47
2022-12-11T06:14:17.868Z,-4.31
2022-12-11T06:16:45.421Z,-4.20
2022-12-11T06:19:18.647Z,-4.08
2022-12-11T06:21:46.933Z,-4.23
2022-12-11T06:24:14.380Z,-4.21
2022-12-11T06:26:42.050Z,-4.22
2022-12-11T06:29:12.965Z,-4.24
2022-12-11T06:31:41.015Z,-4.21
2022-12-11T06:34:09.449Z,-4.34
2022-12-11T06:36:37.125Z,-4.20
2022-12-11T06:39:05.082Z,-4.19
2022-12-11T06:41:32.518Z,-4.16
2022-12-11T06:44:00.202Z,-4.11
2022-12-11T06:46:27.852Z,-4.12
2022-12-11T06:48:55.337Z,-4.14
2022-12-11T06:51:23.956Z,-4.18
2022-12-11T06:53:56.853Z,-4.20
2022-12-11T06:56:25.686Z,-4.13
2022-12-11T06:58:55.477Z,-4.13
2022-12-11T07:01:28.661Z,-4.03
2022-12-11T07:03:57.757Z,-4.10
2022-12-11T07:06:28.322Z,-4.04
2022-12-11T07:08:57.068Z,-3.95
2022-12-11T07:11:24.675Z,-3.99
2022-12-11T07:13:52.942Z,-3.94
2022-12-11T07:16:20.515Z,-3.92
2022-12-11T07:18:50.847Z,-3.91
2022-12-11T07:21:19.869Z,-3.98
2022-12-11T07:23:49.114Z,-3.91
2022-12-11T07:26:21.907Z,-3.87
2022-12-11T07:28:49.837Z,-3.86
2022-12-11T07:31:23.554Z,-3.91
2022-12-11T07:33:55.569Z,-3.94
2022-12-11T07:36:24.183Z,-3.96
2022-12-11T07:38:51.703Z,-3.90
2022-12-11T07:41:19.302Z,-3.87
2022-12-11T07:43:54.101Z,-3.99
2022-12-11T07:46:24.186Z,-3.94
2022-12-11T07:48:53.135Z,-3.91
2022-12-11T07:51:29.241Z,-3.92
2022-12-11T07:53:59.913Z,-3.88
2022-12-11T07:56:28.613Z,-3.79
2022-12-11T07:58:56.667Z,-3.87
2022-12-11T08:01:26.840Z,-3.71
2022-12-11T08:03:55.506Z,-3.83
2022-12-11T08:06:28.940Z,-3.79
2022-12-11T08:08:57.707Z,-3.59
2022-12-11T08:11:25.818Z,-3.51
2022-12-11T08:13:55.339Z,-3.53
2022-12-11T08:16:23.646Z,-3.52
2022-12-11T08:18:51.914Z,-3.44
2022-12-11T08:21:22.169Z,-3.42
2022-12-11T08:23:50.735Z,-3.35
2022-12-11T08:26:27.634Z,-3.34
2022-12-11T08:28:55.868Z,-3.53
2022-12-11T08:31:24.028Z,-3.22
2022-12-11T08:33:53.226Z,-3.21
2022-12-11T08:36:22.701Z,-3.10
2022-12-11T08:38:50.739Z,-3.05
2022-12-11T08:41:24.683Z,-3.32
2022-12-11T08:43:56.702Z,-3.02
2022-12-11T08:46:27.342Z,-2.99
2022-12-11T08:48:55.822Z,-2.98
2022-12-11T08:51:25.472Z,-3.00
2022-12-11T08:54:01.823Z,-2.95
2022-12-11T08:56:30.404Z,-2.89
2022-12-11T08:59:01.790Z,-2.81
2022-12-11T09:01:29.843Z,-2.78
2022-12-11T09:03:58.735Z,-2.82
2022-12-11T09:06:29.565Z,-2.79
2022-12-11T09:09:00.342Z,-2.68
2022-12-11T09:11:31.377Z,-2.65
2022-12-11T09:14:05.201Z,-2.69
2022-12-11T09:16:40.956Z,-2.84
2022-12-11T09:19:15.790Z,-2.61
2022-12-11T09:21:44.603Z,-2.55
2022-12-11T09:24:13.772Z,-2.38
2022-12-11T09:26:42.086Z,-2.40
2022-12-11T09:29:10.932Z,-2.30
2022-12-11T09:31:39.461Z,-2.35
2022-12-11T09:34:12.261Z,-2.24
2022-12-11T09:36:41.055Z,-2.40
2022-12-11T09:39:09.802Z,-2.12
2022-12-11T09:41:38.668Z,-2.26
2022-12-11T09:44:11.889Z,-2.10
2022-12-11T09:46:40.936Z,-2.12
2022-12-11T09:49:21.393Z,-2.07
2022-12-11T09:51:59.134Z,-2.04
2022-12-11T09:54:27.655Z,-1.98
2022-12-11T09:56:54.724Z,-2.07
2022-12-11T09:59:42.299Z,-1.91
2022-12-11T10:02:24.771Z,-1.83
2022-12-11T10:05:27.313Z,-1.77
2022-12-11T10:08:21.959Z,-1.76
2022-12-11T10:11:06.166Z,-1.77
2022-12-11T10:14:01.082Z,-1.73
2022-12-11T10:16:28.542Z,-1.72
2022-12-11T10:18:56.533Z,-1.64
2022-12-11T10:21:24.557Z,-1.62
2022-12-11T10:23:58.989Z,-1.58
2022-12-11T10:26:28.691Z,-1.63
2022-12-11T10:29:00.895Z,-1.63
2022-12-11T10:31:53.787Z,-1.54
2022-12-11T10:34:44.604Z,-1.47
2022-12-11T10:37:12.125Z,-1.44
2022-12-11T10:39:39.237Z,-1.43
2022-12-11T10:42:18.773Z,-1.36
2022-12-11T10:45:04.204Z,-1.34
2022-12-11T10:47:33.757Z,-1.30
2022-12-11T10:50:02.793Z,-1.34
2022-12-11T10:52:39.597Z,-1.41
2022-12-11T10:55:28.167Z,-1.22
2022-12-11T10:58:03.355Z,-1.15
2022-12-11T11:00:42.672Z,-1.16
2022-12-11T11:03:27.738Z,-1.01
2022-12-11T11:06:17.926Z,-1.06
2022-12-11T11:08:48.054Z,-1.07
2022-12-11T11:11:39.884Z,-0.99
2022-12-11T11:14:21.821Z,-0.99
2022-12-11T11:16:51.844Z,-0.81
2022-12-11T11:19:24.303Z,-0.71
2022-12-11T11:21:55.605Z,-0.75
2022-12-11T11:24:36.013Z,-0.75
2022-12-11T11:27:30.748Z,-0.83
2022-12-11T11:30:05.626Z,-0.80
2022-12-11T11:32:40.653Z,-0.66
2022-12-11T11:35:15.073Z,-0.63
2022-12-11T11:37:54.330Z,-0.66
2022-12-11T11:40:32.121Z,-0.51
2022-12-11T11:43:41.101Z,-0.50
2022-12-11T11:46:17.030Z,-0.56
2022-12-11T11:49:32.917Z,-0.45
2022-12-11T11:52:15.632Z,-0.46
2022-12-11T11:54:55.596Z,-0.52
2022-12-11T11:57:47.281Z,-0.40
2022-12-11T12:00:33.380Z,-0.48
2022-12-11T12:03:16.274Z,-0.40
2022-12-11T12:06:05.506Z,-0.38
2022-12-11T12:08:51.639Z,-0.32
2022-12-11T12:11:35.015Z,-0.44
2022-12-11T12:14:43.718Z,-0.31
2022-12-11T12:17:18.075Z,-0.46
2022-12-11T12:20:24.785Z,-0.29
2022-12-11T12:23:08.475Z,-0.28
2022-12-11T12:25:46.170Z,-0.25
2022-12-11T12:28:38.747Z,-0.26
2022-12-11T12:31:36.758Z,0.02
2022-12-11T12:34:27.838Z,0.06
2022-12-11T12:37:07.299Z,0.08
2022-12-11T12:39:57.017Z,0.18
2022-12-11T12:42:49.123Z,0.13
2022-12-11T12:45:17.200Z,0.18
2022-12-11T12:47:53.193Z,0.19
2022-12-11T12:50:25.789Z,0.24
2022-12-11T12:52:56.929Z,0.27
2022-12-11T12:55:33.291Z,0.36
2022-12-11T12:58:07.324Z,0.16
2022-12-11T13:00:42.177Z,0.46
2022-12-11T13:03:16.491Z,0.58
2022-12-11T13:05:56.381Z,0.60
2022-12-11T13:08:38.477Z,0.61
2022-12-11T13:11:11.738Z,0.52
2022-12-11T13:14:02.477Z,0.54
2022-12-11T13:16:39.599Z,0.49
2022-12-11T13:19:28.552Z,0.58
2022-12-11T13:22:16.535Z,0.62
2022-12-11T13:25:02.470Z,0.65
2022-12-11T13:27:31.658Z,0.80
2022-12-11T13:30:22.857Z,0.71
2022-12-11T13:32:57.917Z,0.54
2022-12-11T13:35:26.013Z,0.84
2022-12-11T13:37:57.364Z,0.80
2022-12-11T13:40:28.634Z,0.71
2022-12-11T13:43:08.057Z,0.79
2022-12-11T13:45:51.408Z,0.87
2022-12-11T13:48:38.262Z,0.90
2022-12-11T13:51:18.933Z,0.99
2022-12-11T13:53:47.470Z,1.12
2022-12-11T13:56:20.974Z,0.94
2022-12-11T13:58:49.751Z,1.05
2022-12-11T14:01:31.406Z,1.00
2022-12-11T14:04:16.638Z,1.00
2022-12-11T14:06:44.372Z,1.01
2022-12-11T14:09:23.950Z,1.00
2022-12-11T14:11:56.748Z,0.90
2022-12-11T14:14:44.181Z,1.00
2022-12-11T14:17:15.672Z,1.14
2022-12-11T14:19:48.767Z,1.09
2022-12-11T14:22:23.241Z,1.12
2022-12-11T14:24:53.269Z,1.10
2022-12-11T14:27:24.368Z,1.15
2022-12-11T14:29:52.215Z,1.04
2022-12-11T14:32:43.616Z,0.92
2022-12-11T14:35:27.320Z,1.02
2022-12-11T14:37:55.211Z,1.06
2022-12-11T14:40:29.887Z,1.01
2022-12-11T14:43:03.198Z,0.92
2022-12-11T14:45:45.886Z,1.00
2022-12-11T14:48:45.404Z,1.05
2022-12-11T14:51:18.922Z,0.96
2022-12-11T14:53:49.448Z,1.09
2022-12-11T14:56:26.295Z,1.08
2022-12-11T14:58:59.253Z,1.04
2022-12-11T15:01:36.847Z,0.99
2022-12-11T15:04:23.375Z,1.01
2022-12-11T15:06:53.612Z,0.78
2022-12-11T15:09:37.460Z,0.93
2022-12-11T15:12:15.985Z,0.96
2022-12-11T15:15:08.779Z,0.95
2022-12-11T15:17:38.188Z,0.97
2022-12-11T15:20:25.652Z,0.95
2022-12-11T15:25:25.803Z,1.06
2022-12-11T15:27:59.122Z,1.04
2022-12-11T15:30:30.064Z,0.92
2022-12-11T15:33:11.223Z,1.03
2022-12-11T15:35:41.687Z,1.00
2022-12-11T15:38:31.223Z,1.00
2022-12-11T15:40:59.531Z,0.99
2022-12-11T15:43:28.480Z,0.78
2022-12-11T15:45:57.514Z,0.98
2022-12-11T15:48:25.381Z,0.88
2022-12-11T15:50:53.239Z,0.91
2022-12-11T15:53:23.458Z,0.88
2022-12-11T15:55:52.551Z,0.66
2022-12-11T15:58:22.367Z,0.71
2022-12-11T16:00:49.997Z,0.72
2022-12-11T16:03:22.899Z,0.63
2022-12-11T16:05:54.084Z,0.42
2022-12-11T16:08:28.209Z,0.48
2022-12-11T16:10:56.741Z,0.66
2022-12-11T16:13:24.462Z,0.51
2022-12-11T16:15:55.407Z,0.38
2022-12-11T16:18:24.305Z,0.30
2022-12-11T16:20:53.017Z,0.22
2022-12-11T16:23:20.784Z,0.19
2022-12-11T16:25:48.508Z,0.11
2022-12-11T16:28:18.775Z,0.07
2022-12-11T16:30:46.952Z,0.01
2022-12-11T16:33:14.688Z,-0.05
2022-12-11T16:35:43.722Z,-0.11
2022-12-11T16:38:12.501Z,-0.45
2022-12-11T16:40:40.942Z,-0.28
2022-12-11T16:43:14.730Z,-0.34
2022-12-11T16:45:47.276Z,-0.38
2022-12-11T16:48:15.538Z,-0.50
2022-12-11T16:50:42.928Z,-0.54
2022-12-11T16:53:14.084Z,-0.60
2022-12-11T16:55:44.163Z,-0.57
2022-12-11T16:58:16.708Z,-0.55
2022-12-11T17:00:44.861Z,-0.57
2022-12-11T17:03:12.686Z,-0.59
2022-12-11T17:05:42.574Z,-0.60
2022-12-11T17:08:10.699Z,-0.51
2022-12-11T17:10:42.239Z,-0.55
2022-12-11T17:13:09.813Z,-0.38
2022-12-11T17:15:41.758Z,-0.38
2022-12-11T17:18:13.365Z,-0.41
2022-12-11T17:20:45.331Z,-0.38
2022-12-11T17:23:13.974Z,-0.47
2022-12-11T17:25:43.486Z,-0.50
2022-12-11T17:28:12.855Z,-0.59
2022-12-11T17:30:43.387Z,-0.60
2022-12-11T17:33:12.119Z,-0.67
2022-12-11T17:35:39.974Z,-0.73
2022-12-11T17:38:07.750Z,-0.78
2022-12-11T17:40:36.097Z,-0.81
2022-12-11T17:43:07.308Z,-0.81
2022-12-11T17:45:35.077Z,-0.90
2022-12-11T17:48:03.075Z,-0.89
2022-12-11T17:50:30.962Z,-0.94
2022-12-11T17:53:00.657Z,-0.99
2022-12-11T17:55:28.409Z,-1.04
2022-12-11T17:57:56.086Z,-1.02
2022-12-11T18:00:25.414Z,-1.14
2022-12-11T18:02:55.539Z,-1.12
2022-12-11T18:05:23.553Z,-1.13
2022-12-11T18:07:55.981Z,-1.17
2022-12-11T18:10:25.273Z,-1.10
2022-12-11T18:12:53.239Z,-1.29
2022-12-11T18:15:21.162Z,-1.14
2022-12-11T18:17:52.051Z,-1.14
2022-12-11T18:20:20.092Z,-1.22
2022-12-11T18:22:47.544Z,-1.23
2022-12-11T18:25:17.928Z,-1.25
2022-12-11T18:27:46.075Z,-1.25
2022-12-11T18:30:15.401Z,-1.30
2022-12-11T18:32:43.775Z,-1.38
2022-12-11T18:35:12.656Z,-1.37
2022-12-11T18:37:42.614Z,-1.48
2022-12-11T18:40:12.887Z,-1.41
2022-12-11T18:42:40.684Z,-1.45
2022-12-11T18:45:10.494Z,-1.46
2022-12-11T18:47:39.459Z,-1.48
2022-12-11T18:50:08.306Z,-1.53
2022-12-11T18:52:36.546Z,-1.83
2022-12-11T18:55:05.009Z,-1.61
2022-12-11T18:57:33.724Z,-1.59
2022-12-11T19:00:07.805Z,-1.58
2022-12-11T19:02:36.517Z,-1.70
2022-12-11T19:05:04.294Z,-1.65
2022-12-11T19:07:32.028Z,-1.62
2022-12-11T19:10:02.057Z,-1.68
2022-12-11T19:12:29.534Z,-1.71
2022-12-11T19:14:57.818Z,-1.70
2022-12-11T19:17:25.366Z,-1.63
2022-12-11T19:19:53.254Z,-1.63
2022-12-11T19:22:20.774Z,-1.64
2022-12-11T19:24:48.130Z,-1.66
2022-12-11T19:27:15.617Z,-1.67
2022-12-11T19:29:43.536Z,-1.65
2022-12-11T19:32:11.024Z,-1.66
2022-12-11T19:34:39.339Z,-1.72
2022-12-11T19:37:07.154Z,-1.71
2022-12-11T19:39:35.088Z,-1.71
2022-12-11T19:42:02.726Z,-1.76
2022-12-11T19:44:29.983Z,-1.84
2022-12-11T19:46:57.463Z,-1.87
2022-12-11T19:49:25.546Z,-1.90
2022-12-11T19:51:53.212Z,-1.93
2022-12-11T19:54:20.849Z,-1.97
2022-12-11T19:56:48.383Z,-1.98
2022-12-11T19:59:17.353Z,-2.00
2022-12-11T20:01:48.390Z,-2.02
2022-12-11T20:04:17.376Z,-2.10
2022-12-11T20:06:46.661Z,-2.03
2022-12-11T20:09:14.730Z,-2.07
2022-12-11T20:11:47.833Z,-2.03
2022-12-11T20:14:24.725Z,-2.21
2022-12-11T20:17:10.898Z,-2.06
2022-12-11T20:19:40.430Z,-2.07
2022-12-11T20:22:08.607Z,-2.09
2022-12-11T20:24:36.796Z,-2.20
2022-12-11T20:27:05.090Z,-2.06
2022-12-11T20:29:32.608Z,-2.09
2022-12-11T20:32:00.779Z,-2.12
2022-12-11T20:34:28.490Z,-2.07
2022-12-11T20:36:57.227Z,-2.09
2022-12-11T20:39:24.888Z,-2.12
2022-12-11T20:41:52.642Z,-2.10
2022-12-11T20:44:20.339Z,-2.12
2022-12-11T20:46:47.785Z,-2.11
2022-12-11T20:49:15.270Z,-2.15
2022-12-11T20:51:52.018Z,-2.19
2022-12-11T20:54:19.555Z,-2.15
2022-12-11T20:56:47.371Z,-2.15
2022-12-11T20:59:15.415Z,-2.20
2022-12-11T21:01:43.480Z,-2.26
2022-12-11T21:04:11.300Z,-2.25
2022-12-11T21:06:41.082Z,-2.12
2022-12-11T21:09:12.944Z,-2.25
2022-12-11T21:11:40.831Z,-2.21
2022-12-11T21:14:08.473Z,-2.27
2022-12-11T21:16:38.122Z,-2.29
2022-12-11T21:19:06.511Z,-2.28
2022-12-11T21:21:37.250Z,-2.34
2022-12-11T21:24:05.671Z,-2.39
2022-12-11T21:26:34.255Z,-2.40
2022-12-11T21:29:01.477Z,-2.46
2022-12-11T21:31:29.788Z,-2.47
2022-12-11T21:33:57.809Z,-2.46
2022-12-11T21:36:25.184Z,-2.53
2022-12-11T21:38:52.487Z,-2.53
2022-12-11T21:41:22.842Z,-2.56
2022-12-11T21:44:56.693Z,-2.58
2022-12-11T21:46:40.064Z,-2.62
2022-12-11T21:49:08.724Z,-2.57
2022-12-11T21:51:43.914Z,-2.55
2022-12-11T21:54:19.229Z,-2.54
2022-12-11T21:56:47.497Z,-2.67
2022-12-11T21:59:15.133Z,-2.65
2022-12-11T22:01:46.381Z,-2.59
2022-12-11T22:04:14.904Z,-2.63
2022-12-11T22:06:44.034Z,-2.59
2022-12-11T22:09:13.000Z,-2.62
2022-12-11T22:11:45.675Z,-2.66
2022-12-11T22:14:18.326Z,-2.79
2022-12-11T22:16:46.858Z,-2.72
2022-12-11T22:19:14.498Z,-2.69
2022-12-11T22:21:41.953Z,-2.75
2022-12-11T22:24:09.477Z,-2.76
2022-12-11T22:29:19.481Z,-2.70
2022-12-11T22:31:48.780Z,-2.67
2022-12-11T22:34:16.352Z,-2.74
2022-12-11T22:37:03.767Z,-2.70
2022-12-11T22:39:37.528Z,-2.77
2022-12-11T22:42:37.418Z,-2.82
2022-12-11T22:45:07.679Z,-2.90
2022-12-11T22:47:35.565Z,-2.88
2022-12-11T22:50:04.711Z,-2.82
2022-12-11T22:52:33.124Z,-2.80
2022-12-11T22:55:00.442Z,-2.74
2022-12-11T22:57:28.517Z,-2.71
2022-12-11T22:59:57.594Z,-2.75
2022-12-11T23:02:25.386Z,-2.76
2022-12-11T23:04:52.623Z,-2.71
2022-12-11T23:07:19.927Z,-2.71
2022-12-11T23:09:47.163Z,-2.76
2022-12-11T23:12:14.417Z,-2.75
2022-12-11T23:14:41.638Z,-2.70
2022-12-11T23:17:08.901Z,-2.72
2022-12-11T23:19:36.715Z,-2.74
2022-12-11T23:22:04.961Z,-2.74
2022-12-11T23:24:32.384Z,-2.75
2022-12-11T23:27:13.091Z,-2.70
2022-12-11T23:29:47.933Z,-2.71
2022-12-11T23:32:18.842Z,-2.66
2022-12-11T23:35:14.109Z,-2.63
2022-12-11T23:37:44.916Z,-2.62
2022-12-11T23:40:15.092Z,-2.66
2022-12-11T23:42:42.836Z,-2.69
2022-12-11T23:45:12.463Z,-2.62
2022-12-11T23:47:41.652Z,-2.64
2022-12-11T23:50:10.379Z,-2.62
2022-12-11T23:52:42.500Z,-2.61
2022-12-11T23:55:11.999Z,-2.70
2022-12-11T23:57:39.485Z,-2.64
